Blytheville, Arkansas
Current Conditions -  °F | °C
As of 2:09 AM on Monday 24 Nov 2014 (Local Time) from KHKA Reporting Station
Scattered Clouds Scattered Clouds  
Wind Chill: 66°   Ceiling: Unl
Heat Index: 66°   Visibility: 10mi
Dew Point: 56°   Wind: 21mph
Humidity: 70%   Direction: 220°SW
Pressure: 29.39"   Gusts: 32mph
Location:  35.93°N, 89.9°W
Report Text: KHKA 240809Z AUTO 22018G28KT 10SM SCT027 19/13 A2939 RMK AO2 PK WND 22028/0755 T01890133 $
Loading
Personal Weather Stations






























Interactive Weather Map New forecast layout! Learn more

10-Day Weather Forecast

Advertisements
Track Severe Weather on mobile